Time;durP1;ratioP1;P1;durP2;ratioP2;P2;SDS_P1;SDS_P2;PMS_P1;PMS_P2;Temp;Humidity;BMP_temperature;BMP_pressure;BME280_temperature;BME280_humidity;BME280_pressure;Samples;Min_cycle;Max_cycle;Signal;HPM_P1;HPM_P2
2022/11/25 00:00:25;;;;;;;2.80;1.55;;;;;;;;;;5110148;28;20043;-80
2022/11/25 00:02:51;;;;;;;3.80;1.60;;;;;;;;;;5099023;28;20489;-79
2022/11/25 00:05:17;;;;;;;5.75;2.28;;;;;;;;;;5106979;28;20034;-80
2022/11/25 00:07:43;;;;;;;3.45;1.83;;;;;;;;;;5105659;28;20036;-79
2022/11/25 00:10:09;;;;;;;5.32;1.63;;;;;;;;;;5106656;28;20030;-79
2022/11/25 00:12:35;;;;;;;3.50;1.50;;;;;;;;;;5106666;28;20063;-79
2022/11/25 00:15:01;;;;;;;2.40;1.50;;;;;;;;;;5106374;28;20111;-81
2022/11/25 00:17:27;;;;;;;3.30;1.50;;;;;;;;;;5105540;28;20020;-81
2022/11/25 00:19:53;;;;;;;2.55;1.30;;;;;;;;;;5106434;28;20106;-80
2022/11/25 00:22:19;;;;;;;2.75;1.60;;;;;;;;;;5107109;28;20060;-80
2022/11/25 00:24:45;;;;;;;1.63;1.30;;;;;;;;;;5106946;28;20020;-81
2022/11/25 00:27:11;;;;;;;1.67;1.30;;;;;;;;;;5105245;28;20038;-80
2022/11/25 00:29:37;;;;;;;1.98;1.20;;;;;;;;;;5087192;28;20025;-81
2022/11/25 00:32:03;;;;;;;4.43;1.70;;;;;;;;;;5100394;28;20020;-82
2022/11/25 00:34:29;;;;;;;5.38;1.40;;;;;;;;;;5106924;28;20072;-80
2022/11/25 00:36:55;;;;;;;1.75;1.20;;;;;;;;;;5105743;28;20032;-80
2022/11/25 00:39:23;;;;;;;2.38;1.15;;;;;;;;;;5106500;28;20464;-79
2022/11/25 00:44:34;;;;;;;1.83;0.90;;;;;;;;;;5110024;28;20035;-81
2022/11/25 00:47:01;;;;;;;0.90;0.90;;;;;;;;;;5087959;28;20020;-80
2022/11/25 00:49:27;;;;;;;2.40;1.10;;;;;;;;;;5103641;28;20038;-80
2022/11/25 00:51:53;;;;;;;2.05;1.13;;;;;;;;;;5100642;28;20028;-80
2022/11/25 00:54:19;;;;;;;2.03;1.38;;;;;;;;;;5109623;28;20032;-80
2022/11/25 00:56:45;;;;;;;1.15;1.00;;;;;;;;;;5109132;28;20127;-79
2022/11/25 00:59:11;;;;;;;3.72;1.10;;;;;;;;;;5106006;28;20036;-80
2022/11/25 01:01:38;;;;;;;2.08;1.17;;;;;;;;;;5099491;28;20020;-80
2022/11/25 01:04:04;;;;;;;4.82;1.30;;;;;;;;;;5102397;28;20028;-80
2022/11/25 01:06:30;;;;;;;1.48;1.38;;;;;;;;;;5105650;28;20035;-80
2022/11/25 01:08:56;;;;;;;1.38;0.90;;;;;;;;;;5104610;28;20036;-79
2022/11/25 01:11:23;;;;;;;1.60;0.93;;;;;;;;;;5106668;28;20038;-80
2022/11/25 01:13:49;;;;;;;4.32;1.38;;;;;;;;;;5106887;28;20051;-80
2022/11/25 01:16:17;;;;;;;3.15;1.13;;;;;;;;;;5104554;28;20115;-81
2022/11/25 01:18:44;;;;;;;2.55;1.42;;;;;;;;;;5103317;28;20024;-80
2022/11/25 01:21:14;;;;;;;6.65;1.40;;;;;;;;;;5103913;28;20401;-81
2022/11/25 01:23:41;;;;;;;2.15;1.10;;;;;;;;;;5104129;28;20036;-80
2022/11/25 01:26:09;;;;;;;1.50;0.93;;;;;;;;;;5104157;28;20031;-79
2022/11/25 01:28:35;;;;;;;2.88;1.30;;;;;;;;;;5106670;28;20352;-80
2022/11/25 01:31:07;;;;;;;1.88;1.10;;;;;;;;;;5105088;28;20495;-81
2022/11/25 01:33:34;;;;;;;1.90;1.20;;;;;;;;;;5103953;28;20054;-80
2022/11/25 01:36:20;;;;;;;2.17;1.05;;;;;;;;;;5104065;28;20433;-80
2022/11/25 01:38:49;;;;;;;3.50;1.05;;;;;;;;;;5103902;28;20051;-80
2022/11/25 01:41:15;;;;;;;0.80;0.80;;;;;;;;;;5113071;28;20076;-80
2022/11/25 01:43:42;;;;;;;2.30;0.80;;;;;;;;;;5117284;28;20036;-78
2022/11/25 01:46:22;;;;;;;2.85;1.10;;;;;;;;;;5107964;28;20055;-81
2022/11/25 01:48:49;;;;;;;1.20;0.85;;;;;;;;;;5103265;28;20028;-79
2022/11/25 01:51:38;;;;;;;2.50;1.20;;;;;;;;;;5089314;28;20115;-79
2022/11/25 01:54:06;;;;;;;2.95;1.20;;;;;;;;;;5086597;28;20032;-80
2022/11/25 01:56:35;;;;;;;2.20;0.80;;;;;;;;;;5111899;28;20028;-81
2022/11/25 01:59:01;;;;;;;1.67;0.90;;;;;;;;;;5098924;28;20008;-79
2022/11/25 02:01:27;;;;;;;1.10;0.80;;;;;;;;;;5117177;28;20036;-79
2022/11/25 02:03:55;;;;;;;4.13;1.17;;;;;;;;;;5107255;28;20023;-81
2022/11/25 02:06:40;;;;;;;1.85;1.10;;;;;;;;;;5117359;28;20035;-81
2022/11/25 02:09:07;;;;;;;1.08;0.82;;;;;;;;;;5117478;28;20040;-81
2022/11/25 02:11:34;;;;;;;1.83;1.13;;;;;;;;;;5117135;28;20071;-80
2022/11/25 02:14:02;;;;;;;1.63;0.93;;;;;;;;;;5110025;28;20080;-79
2022/11/25 02:16:28;;;;;;;2.63;1.13;;;;;;;;;;5107816;28;20032;-79
2022/11/25 02:18:54;;;;;;;0.82;0.70;;;;;;;;;;5108810;28;20047;-78
2022/11/25 02:21:24;;;;;;;2.30;1.17;;;;;;;;;;5093230;28;20059;-81
2022/11/25 02:24:00;;;;;;;0.95;0.63;;;;;;;;;;5109541;28;20047;-80
2022/11/25 02:26:27;;;;;;;0.88;0.73;;;;;;;;;;5109367;28;20055;-80
2022/11/25 02:28:53;;;;;;;2.28;0.90;;;;;;;;;;5111107;28;20028;-80
2022/11/25 02:31:22;;;;;;;4.78;0.85;;;;;;;;;;5109609;28;20035;-79
2022/11/25 02:33:48;;;;;;;3.05;0.80;;;;;;;;;;5110523;28;20032;-79
2022/11/25 02:36:16;;;;;;;0.75;0.75;;;;;;;;;;5111179;28;20110;-79
2022/11/25 02:38:43;;;;;;;1.10;0.80;;;;;;;;;;5110337;28;20028;-79
2022/11/25 02:41:12;;;;;;;1.05;0.80;;;;;;;;;;5111362;28;20016;-80
2022/11/25 02:43:38;;;;;;;2.05;0.90;;;;;;;;;;5116107;28;20028;-79
2022/11/25 02:46:15;;;;;;;1.33;0.80;;;;;;;;;;5110293;28;20083;-79
2022/11/25 02:48:41;;;;;;;2.85;0.98;;;;;;;;;;5109899;28;20060;-80
2022/11/25 02:51:09;;;;;;;1.15;0.70;;;;;;;;;;5103921;28;20107;-80
2022/11/25 02:53:35;;;;;;;1.17;0.60;;;;;;;;;;5103693;28;20071;-80
2022/11/25 02:56:01;;;;;;;1.17;0.73;;;;;;;;;;5105389;28;20035;-79
2022/11/25 02:58:28;;;;;;;1.75;0.85;;;;;;;;;;5105137;28;20501;-80
2022/11/25 03:00:54;;;;;;;1.63;0.65;;;;;;;;;;5082714;28;20028;-79
2022/11/25 03:03:20;;;;;;;2.15;0.60;;;;;;;;;;5093845;28;20035;-79
2022/11/25 03:05:46;;;;;;;2.38;0.70;;;;;;;;;;5102174;28;20028;-79
2022/11/25 03:08:12;;;;;;;1.55;0.73;;;;;;;;;;5102711;28;20032;-80
2022/11/25 03:10:38;;;;;;;2.60;0.60;;;;;;;;;;5104429;28;20016;-82
2022/11/25 03:13:05;;;;;;;1.42;0.90;;;;;;;;;;5086473;28;20028;-81
2022/11/25 03:15:31;;;;;;;1.13;0.70;;;;;;;;;;5103390;28;20032;-80
2022/11/25 03:17:57;;;;;;;1.20;0.65;;;;;;;;;;5103074;28;20035;-79
2022/11/25 03:20:23;;;;;;;0.70;0.63;;;;;;;;;;5101578;28;20016;-78
2022/11/25 03:22:49;;;;;;;2.50;1.08;;;;;;;;;;5101670;28;20016;-78
2022/11/25 03:25:16;;;;;;;1.00;0.82;;;;;;;;;;5104826;28;20044;-79
2022/11/25 03:27:42;;;;;;;1.13;0.77;;;;;;;;;;5101763;28;20062;-80
2022/11/25 03:30:11;;;;;;;0.82;0.70;;;;;;;;;;5102699;28;20493;-80
2022/11/25 03:32:37;;;;;;;2.78;0.82;;;;;;;;;;5093986;28;20025;-80
2022/11/25 03:35:04;;;;;;;2.53;0.90;;;;;;;;;;5103158;28;20028;-80
2022/11/25 03:37:30;;;;;;;1.77;0.98;;;;;;;;;;5083803;28;20028;-80
2022/11/25 03:39:56;;;;;;;1.17;0.80;;;;;;;;;;5103458;28;20039;-79
2022/11/25 03:42:22;;;;;;;0.73;0.65;;;;;;;;;;5103882;28;20054;-79
2022/11/25 03:44:48;;;;;;;1.15;0.70;;;;;;;;;;5107116;28;20088;-79
2022/11/25 03:47:14;;;;;;;0.95;0.70;;;;;;;;;;5106629;28;20051;-78
2022/11/25 03:49:40;;;;;;;0.80;0.70;;;;;;;;;;5087838;28;20173;-79
2022/11/25 03:52:06;;;;;;;0.95;0.68;;;;;;;;;;5103512;28;20059;-79
2022/11/25 03:54:32;;;;;;;0.85;0.70;;;;;;;;;;5106312;28;20726;-80
2022/11/25 03:56:58;;;;;;;1.73;0.60;;;;;;;;;;5105597;28;20025;-80
2022/11/25 03:59:24;;;;;;;0.95;0.63;;;;;;;;;;5106245;28;20031;-80
2022/11/25 04:01:51;;;;;;;0.77;0.60;;;;;;;;;;5106990;28;20039;-81
2022/11/25 04:04:17;;;;;;;0.77;0.68;;;;;;;;;;5104420;28;20022;-80
2022/11/25 04:06:52;;;;;;;1.65;0.55;;;;;;;;;;5106797;28;20032;-81
2022/11/25 04:09:21;;;;;;;0.38;0.35;;;;;;;;;;5087644;28;20028;-81
2022/11/25 04:14:32;;;;;;;0.65;0.60;;;;;;;;;;5104751;28;20031;-79
2022/11/25 04:16:58;;;;;;;0.40;0.40;;;;;;;;;;5102678;28;20030;-81
2022/11/25 04:19:24;;;;;;;0.75;0.50;;;;;;;;;;5104917;28;20027;-79
2022/11/25 04:21:50;;;;;;;0.55;0.50;;;;;;;;;;5105230;28;20031;-80
2022/11/25 04:24:15;;;;;;;1.17;0.63;;;;;;;;;;5104853;28;20035;-80
2022/11/25 04:26:42;;;;;;;0.70;0.65;;;;;;;;;;5105280;28;20032;-80
2022/11/25 04:29:08;;;;;;;0.55;0.55;;;;;;;;;;5089334;28;20046;-80
2022/11/25 04:31:34;;;;;;;0.50;0.50;;;;;;;;;;5102560;28;20028;-80
2022/11/25 04:34:00;;;;;;;0.52;0.52;;;;;;;;;;5101467;28;20035;-80
2022/11/25 04:36:26;;;;;;;1.55;0.60;;;;;;;;;;5106402;28;20050;-81
2022/11/25 04:38:52;;;;;;;1.17;0.50;;;;;;;;;;5111562;28;20087;-80
2022/11/25 04:41:18;;;;;;;2.72;0.73;;;;;;;;;;5097870;28;20035;-78
2022/11/25 04:43:44;;;;;;;0.70;0.60;;;;;;;;;;5105760;28;20115;-79
2022/11/25 04:46:14;;;;;;;2.97;1.33;;;;;;;;;;5104011;28;20032;-82
2022/11/25 04:48:40;;;;;;;0.80;0.70;;;;;;;;;;5106404;28;20024;-79
2022/11/25 04:51:06;;;;;;;1.75;0.73;;;;;;;;;;5106139;28;20059;-80
2022/11/25 04:53:32;;;;;;;4.40;1.02;;;;;;;;;;5104516;28;20024;-80
2022/11/25 04:55:58;;;;;;;1.38;0.70;;;;;;;;;;5103933;28;20043;-80
2022/11/25 05:01:09;;;;;;;0.73;0.65;;;;;;;;;;5097586;28;20038;-79
2022/11/25 05:03:35;;;;;;;1.52;0.93;;;;;;;;;;5094334;28;20064;-81
2022/11/25 05:06:05;;;;;;;0.70;0.70;;;;;;;;;;5097289;28;20020;-80
2022/11/25 05:08:31;;;;;;;2.15;0.70;;;;;;;;;;5104664;28;20063;-80
2022/11/25 05:10:58;;;;;;;0.70;0.70;;;;;;;;;;5103863;28;20426;-80
2022/11/25 05:13:24;;;;;;;1.05;0.88;;;;;;;;;;5105732;28;20036;-80
2022/11/25 05:15:50;;;;;;;1.77;1.00;;;;;;;;;;5086102;28;20062;-81
2022/11/25 05:18:16;;;;;;;1.13;0.80;;;;;;;;;;5084486;28;20048;-80
2022/11/25 05:20:43;;;;;;;1.00;0.73;;;;;;;;;;5087001;28;20028;-80
2022/11/25 05:23:09;;;;;;;0.80;0.68;;;;;;;;;;5088334;28;20025;-81
2022/11/25 05:25:35;;;;;;;1.00;0.88;;;;;;;;;;5089980;28;20131;-81
2022/11/25 05:28:01;;;;;;;1.48;0.70;;;;;;;;;;5107861;28;20027;-80
2022/11/25 05:30:27;;;;;;;0.80;0.68;;;;;;;;;;5089183;28;20082;-81
2022/11/25 05:32:53;;;;;;;1.45;0.80;;;;;;;;;;5102659;28;20028;-82
2022/11/25 05:35:20;;;;;;;0.90;0.90;;;;;;;;;;5113224;28;20085;-81
2022/11/25 05:37:46;;;;;;;0.88;0.73;;;;;;;;;;5113271;28;20099;-81
2022/11/25 05:40:13;;;;;;;0.93;0.70;;;;;;;;;;5116778;28;20050;-81
2022/11/25 05:42:39;;;;;;;3.42;0.77;;;;;;;;;;5117208;28;20017;-81
2022/11/25 05:45:06;;;;;;;2.03;0.90;;;;;;;;;;5113408;28;20077;-81
2022/11/25 05:47:32;;;;;;;0.70;0.68;;;;;;;;;;5116898;28;20039;-81
2022/11/25 05:49:58;;;;;;;1.65;0.68;;;;;;;;;;5117998;28;20012;-81
2022/11/25 05:52:24;;;;;;;0.80;0.77;;;;;;;;;;5118410;28;20016;-82
2022/11/25 05:54:50;;;;;;;0.63;0.60;;;;;;;;;;5118219;28;20013;-82
2022/11/25 05:57:16;;;;;;;0.50;0.50;;;;;;;;;;5117327;28;20084;-81
2022/11/25 05:59:42;;;;;;;0.65;0.60;;;;;;;;;;5117956;28;20094;-81
2022/11/25 06:02:08;;;;;;;1.00;0.40;;;;;;;;;;5109856;28;20036;-79
2022/11/25 06:04:34;;;;;;;2.53;0.77;;;;;;;;;;5104906;28;20074;-80
2022/11/25 06:07:00;;;;;;;1.70;1.17;;;;;;;;;;5103962;28;20066;-78
2022/11/25 06:09:26;;;;;;;1.40;1.23;;;;;;;;;;5086648;28;20036;-84
2022/11/25 06:11:52;;;;;;;1.38;0.70;;;;;;;;;;5094826;28;20103;-83
2022/11/25 06:14:18;;;;;;;2.25;1.00;;;;;;;;;;5095406;28;20036;-83
2022/11/25 06:16:44;;;;;;;2.05;1.23;;;;;;;;;;5097077;28;20432;-84
2022/11/25 06:19:10;;;;;;;1.60;1.02;;;;;;;;;;5098487;28;20020;-83
2022/11/25 06:21:36;;;;;;;3.25;1.00;;;;;;;;;;5098369;28;20115;-84
2022/11/25 06:24:02;;;;;;;1.60;0.90;;;;;;;;;;5114765;28;20016;-83
2022/11/25 06:26:28;;;;;;;1.17;0.93;;;;;;;;;;5112753;28;20043;-83
2022/11/25 06:28:55;;;;;;;1.20;0.70;;;;;;;;;;5112018;28;20077;-82
2022/11/25 06:31:25;;;;;;;0.75;0.63;;;;;;;;;;5090505;28;20020;-83
2022/11/25 06:33:52;;;;;;;1.25;0.80;;;;;;;;;;5092899;28;20023;-84
2022/11/25 06:36:19;;;;;;;1.05;0.70;;;;;;;;;;5088250;28;20158;-82
2022/11/25 06:38:46;;;;;;;1.67;0.65;;;;;;;;;;5109086;28;20150;-85
2022/11/25 06:41:22;;;;;;;0.77;0.70;;;;;;;;;;5112778;28;20024;-85
2022/11/25 06:43:48;;;;;;;1.73;0.85;;;;;;;;;;5102813;28;20024;-85
2022/11/25 06:46:15;;;;;;;1.58;0.88;;;;;;;;;;5103928;28;20376;-84
2022/11/25 06:48:41;;;;;;;1.63;0.70;;;;;;;;;;5101672;28;20103;-80
2022/11/25 06:51:09;;;;;;;1.45;0.70;;;;;;;;;;5098956;28;20068;-82
2022/11/25 06:53:36;;;;;;;3.28;2.22;;;;;;;;;;5101150;28;20520;-81
2022/11/25 06:56:10;;;;;;;1.25;0.90;;;;;;;;;;5099857;28;20052;-80
2022/11/25 06:58:37;;;;;;;0.90;0.80;;;;;;;;;;5101229;28;20362;-81
2022/11/25 07:01:16;;;;;;;3.08;1.10;;;;;;;;;;5100645;28;20024;-81
2022/11/25 07:03:42;;;;;;;2.75;1.13;;;;;;;;;;5084035;28;20338;-81
2022/11/25 07:06:08;;;;;;;2.05;0.90;;;;;;;;;;5102047;28;20029;-82
2022/11/25 07:08:35;;;;;;;3.17;0.80;;;;;;;;;;5087813;28;20104;-81
2022/11/25 07:11:20;;;;;;;1.98;1.00;;;;;;;;;;5087763;28;20045;-82
2022/11/25 07:13:47;;;;;;;1.02;0.68;;;;;;;;;;5091338;28;20021;-81
2022/11/25 07:16:13;;;;;;;1.20;1.00;;;;;;;;;;5095663;28;20036;-80
2022/11/25 07:18:40;;;;;;;4.13;2.25;;;;;;;;;;5095034;28;20175;-82
2022/11/25 07:21:07;;;;;;;3.30;1.98;;;;;;;;;;5082768;28;20038;-82
2022/11/25 07:23:34;;;;;;;2.50;1.35;;;;;;;;;;5097346;28;20020;-81
2022/11/25 07:26:04;;;;;;;3.00;1.98;;;;;;;;;;5103074;28;20050;-83
2022/11/25 07:28:30;;;;;;;2.58;1.33;;;;;;;;;;5085864;28;20035;-81
2022/11/25 07:30:56;;;;;;;3.45;1.30;;;;;;;;;;5105344;28;20564;-82
2022/11/25 07:33:22;;;;;;;2.75;1.02;;;;;;;;;;5084708;28;20428;-81
2022/11/25 07:35:48;;;;;;;1.90;1.38;;;;;;;;;;5109154;28;20045;-81
2022/11/25 07:38:14;;;;;;;6.40;1.92;;;;;;;;;;5110797;28;20039;-83
2022/11/25 07:40:40;;;;;;;2.00;1.50;;;;;;;;;;5111024;28;20382;-81
2022/11/25 07:43:06;;;;;;;1.42;1.33;;;;;;;;;;5092182;28;20083;-83
2022/11/25 07:45:32;;;;;;;2.03;1.33;;;;;;;;;;5099012;28;20130;-82
2022/11/25 07:47:58;;;;;;;3.00;1.60;;;;;;;;;;5090482;28;20033;-83
2022/11/25 07:50:24;;;;;;;2.97;1.50;;;;;;;;;;5074619;28;20063;-80
2022/11/25 07:52:50;;;;;;;3.65;0.95;;;;;;;;;;5100412;28;20024;-82
2022/11/25 07:55:16;;;;;;;3.08;1.33;;;;;;;;;;5104061;28;20408;-80
2022/11/25 07:57:42;;;;;;;3.22;1.65;;;;;;;;;;5105758;28;20032;-80
2022/11/25 08:00:08;;;;;;;2.58;1.33;;;;;;;;;;5103729;28;20024;-82
2022/11/25 08:02:34;;;;;;;2.10;1.13;;;;;;;;;;5101032;28;20044;-81
2022/11/25 08:05:00;;;;;;;4.53;1.63;;;;;;;;;;5091542;28;20025;-82
2022/11/25 08:07:26;;;;;;;2.95;1.55;;;;;;;;;;5087645;28;20036;-81
2022/11/25 08:09:52;;;;;;;1.85;1.13;;;;;;;;;;5069631;28;20040;-80
2022/11/25 08:12:18;;;;;;;1.15;1.00;;;;;;;;;;5102515;28;20078;-80
2022/11/25 08:14:44;;;;;;;1.42;1.02;;;;;;;;;;5103819;28;20014;-80
2022/11/25 08:17:10;;;;;;;5.10;1.13;;;;;;;;;;5102820;28;20020;-80
2022/11/25 08:19:36;;;;;;;2.28;1.15;;;;;;;;;;5103765;28;20008;-81
2022/11/25 08:22:03;;;;;;;3.92;1.10;;;;;;;;;;5106144;28;20075;-80
2022/11/25 08:24:29;;;;;;;3.10;0.90;;;;;;;;;;5103810;28;20035;-80
2022/11/25 08:26:57;;;;;;;2.40;1.42;;;;;;;;;;5103521;28;20406;-80
2022/11/25 08:29:23;;;;;;;1.83;1.40;;;;;;;;;;5084566;28;20111;-80
2022/11/25 08:31:49;;;;;;;2.40;1.67;;;;;;;;;;5086282;28;20073;-81
2022/11/25 08:34:20;;;;;;;2.65;1.40;;;;;;;;;;5105573;28;20096;-81
2022/11/25 08:36:46;;;;;;;2.40;1.33;;;;;;;;;;5105390;28;20044;-81
2022/11/25 08:39:12;;;;;;;1.23;1.00;;;;;;;;;;5108673;28;20094;-80
2022/11/25 08:41:38;;;;;;;2.47;1.42;;;;;;;;;;5111039;28;20084;-81
2022/11/25 08:44:06;;;;;;;1.60;1.20;;;;;;;;;;5105370;28;20024;-81
2022/11/25 08:46:35;;;;;;;1.80;1.20;;;;;;;;;;5081117;28;20020;-80
2022/11/25 08:49:01;;;;;;;2.45;1.38;;;;;;;;;;5084092;28;20021;-81
2022/11/25 08:51:28;;;;;;;1.75;1.55;;;;;;;;;;5084586;28;20028;-80
2022/11/25 08:53:55;;;;;;;2.13;1.20;;;;;;;;;;5085563;28;20021;-81
2022/11/25 08:56:22;;;;;;;1.73;1.27;;;;;;;;;;5081894;28;20083;-79
2022/11/25 08:58:48;;;;;;;2.90;1.10;;;;;;;;;;5082806;28;20078;-81
2022/11/25 09:01:15;;;;;;;2.88;1.25;;;;;;;;;;5100020;28;20020;-80
2022/11/25 09:03:42;;;;;;;3.47;1.65;;;;;;;;;;5103262;28;20040;-79
2022/11/25 09:06:08;;;;;;;3.47;1.67;;;;;;;;;;5087849;28;20027;-81
2022/11/25 09:08:38;;;;;;;2.10;1.42;;;;;;;;;;5072723;28;20029;-81
2022/11/25 09:11:05;;;;;;;2.90;2.05;;;;;;;;;;5067823;28;20035;-81
2022/11/25 09:13:31;;;;;;;4.15;1.42;;;;;;;;;;5066865;28;20025;-80
2022/11/25 09:15:58;;;;;;;2.00;1.30;;;;;;;;;;5082525;28;20452;-82
2022/11/25 09:18:25;;;;;;;2.38;1.38;;;;;;;;;;5085411;28;20032;-80
2022/11/25 09:20:51;;;;;;;4.72;1.33;;;;;;;;;;5105225;28;20370;-81
2022/11/25 09:23:18;;;;;;;1.63;1.13;;;;;;;;;;5105930;28;20032;-81
2022/11/25 09:25:54;;;;;;;2.47;1.42;;;;;;;;;;5085997;28;20024;-80
2022/11/25 09:28:20;;;;;;;4.03;1.50;;;;;;;;;;5103221;28;20040;-80
2022/11/25 09:30:47;;;;;;;2.78;1.55;;;;;;;;;;5081561;28;20024;-80
2022/11/25 09:33:13;;;;;;;2.20;1.10;;;;;;;;;;5082529;28;20021;-80
2022/11/25 09:35:39;;;;;;;2.63;1.40;;;;;;;;;;5067926;28;20059;-81
2022/11/25 09:38:05;;;;;;;2.45;1.52;;;;;;;;;;5098675;28;20062;-80
2022/11/25 09:40:49;;;;;;;1.75;1.30;;;;;;;;;;5108320;28;20072;-79
2022/11/25 09:46:40;;;;;;;2.67;1.23;;;;;;;;;;5112289;28;20100;-80
2022/11/25 09:49:14;;;;;;;3.92;1.30;;;;;;;;;;5109966;28;20445;-80
2022/11/25 09:51:40;;;;;;;1.85;1.30;;;;;;;;;;5086098;28;20047;-80
2022/11/25 09:54:17;;;;;;;3.75;1.38;;;;;;;;;;5085932;28;20057;-81
2022/11/25 09:56:54;;;;;;;1.52;1.05;;;;;;;;;;5085167;28;20093;-81
2022/11/25 09:59:31;;;;;;;1.52;0.90;;;;;;;;;;5102774;28;20031;-80
2022/11/25 10:02:10;;;;;;;1.58;1.15;;;;;;;;;;5102823;28;20112;-81
2022/11/25 10:04:40;;;;;;;2.10;1.00;;;;;;;;;;5082311;28;20485;-79
2022/11/25 10:07:10;;;;;;;1.58;0.95;;;;;;;;;;5080978;28;20090;-82
2022/11/25 10:09:36;;;;;;;2.05;1.30;;;;;;;;;;5062154;28;20045;-80
2022/11/25 10:12:12;;;;;;;1.45;1.23;;;;;;;;;;5082916;28;20032;-80
2022/11/25 10:14:42;;;;;;;3.00;1.45;;;;;;;;;;5081177;28;20028;-80
2022/11/25 10:17:15;;;;;;;3.22;1.83;;;;;;;;;;5063049;28;20050;-80
2022/11/25 10:19:46;;;;;;;2.95;1.73;;;;;;;;;;5065071;28;20044;-81
2022/11/25 10:22:22;;;;;;;3.05;1.60;;;;;;;;;;5084863;28;20446;-79
2022/11/25 10:24:49;;;;;;;4.05;1.40;;;;;;;;;;5081786;28;20036;-80
2022/11/25 10:27:18;;;;;;;2.42;1.70;;;;;;;;;;5063185;28;20031;-81
2022/11/25 10:29:48;;;;;;;2.42;1.40;;;;;;;;;;5088528;28;20028;-81
2022/11/25 10:32:23;;;;;;;2.15;1.02;;;;;;;;;;5102515;28;20067;-79
2022/11/25 10:34:54;;;;;;;2.63;1.40;;;;;;;;;;5101618;28;20024;-80
2022/11/25 10:37:28;;;;;;;1.67;1.13;;;;;;;;;;5083287;28;20036;-81
2022/11/25 10:39:54;;;;;;;1.50;1.30;;;;;;;;;;5103577;28;20074;-80
2022/11/25 10:42:21;;;;;;;1.88;1.33;;;;;;;;;;5111871;28;20032;-82
2022/11/25 10:44:47;;;;;;;2.65;1.23;;;;;;;;;;5092637;28;20028;-79
2022/11/25 10:47:19;;;;;;;2.28;1.30;;;;;;;;;;5101301;28;20393;-81
2022/11/25 10:49:45;;;;;;;1.55;1.10;;;;;;;;;;5101004;28;20024;-81
2022/11/25 10:52:12;;;;;;;2.90;1.40;;;;;;;;;;5083332;28;20085;-81
2022/11/25 10:54:39;;;;;;;1.70;1.23;;;;;;;;;;5084710;28;20020;-81
2022/11/25 10:57:16;;;;;;;1.65;1.20;;;;;;;;;;5082896;28;20024;-81
2022/11/25 10:59:53;;;;;;;2.20;1.08;;;;;;;;;;5101048;28;20028;-80
2022/11/25 11:02:23;;;;;;;2.65;1.33;;;;;;;;;;5082393;28;20032;-80
2022/11/25 11:04:58;;;;;;;2.53;1.42;;;;;;;;;;5081981;28;20071;-81
2022/11/25 11:07:26;;;;;;;1.83;1.10;;;;;;;;;;5079596;28;20051;-81
2022/11/25 11:09:52;;;;;;;1.55;1.30;;;;;;;;;;5080092;28;20024;-80
2022/11/25 11:12:18;;;;;;;2.35;1.27;;;;;;;;;;5079959;28;20028;-80
2022/11/25 11:14:44;;;;;;;2.05;0.82;;;;;;;;;;5080199;28;20028;-79
2022/11/25 11:17:28;;;;;;;1.40;1.08;;;;;;;;;;5064679;28;20027;-81
2022/11/25 11:20:12;;;;;;;3.30;1.33;;;;;;;;;;5066267;28;20072;-82
2022/11/25 11:22:44;;;;;;;2.45;1.23;;;;;;;;;;5083813;28;20039;-82
2022/11/25 11:25:20;;;;;;;4.50;1.50;;;;;;;;;;5079852;28;20119;-80
2022/11/25 11:27:46;;;;;;;2.15;1.25;;;;;;;;;;5078857;28;20029;-81
2022/11/25 11:30:26;;;;;;;2.72;1.10;;;;;;;;;;5061919;28;20032;-80
2022/11/25 11:33:16;;;;;;;1.52;1.02;;;;;;;;;;5094144;28;20055;-81
2022/11/25 11:35:55;;;;;;;2.25;1.20;;;;;;;;;;5091323;28;20101;-81
2022/11/25 11:38:28;;;;;;;2.42;1.13;;;;;;;;;;5081704;28;20445;-81
2022/11/25 11:41:24;;;;;;;1.23;1.10;;;;;;;;;;5100477;28;20067;-81
2022/11/25 11:43:56;;;;;;;1.90;1.35;;;;;;;;;;5077660;28;20041;-82
2022/11/25 11:46:25;;;;;;;6.82;1.33;;;;;;;;;;5080551;22;20044;-80
2022/11/25 11:49:02;;;;;;;3.58;1.55;;;;;;;;;;5077347;28;20028;-79
2022/11/25 11:51:28;;;;;;;2.97;1.20;;;;;;;;;;5078932;28;20032;-79
2022/11/25 11:54:14;;;;;;;4.53;1.10;;;;;;;;;;5078582;28;20458;-76
2022/11/25 11:56:42;;;;;;;3.40;1.20;;;;;;;;;;5092313;28;20100;-79
2022/11/25 11:59:08;;;;;;;1.52;1.00;;;;;;;;;;5066158;28;20489;-79
2022/11/25 12:01:40;;;;;;;3.78;1.10;;;;;;;;;;5068691;28;20064;-79
2022/11/25 12:04:26;;;;;;;2.55;1.17;;;;;;;;;;5065898;28;20137;-79
2022/11/25 12:07:00;;;;;;;1.52;1.02;;;;;;;;;;5079461;28;20389;-78
2022/11/25 12:09:28;;;;;;;2.03;1.20;;;;;;;;;;5077904;28;20519;-78
2022/11/25 12:11:58;;;;;;;1.27;0.70;;;;;;;;;;5080343;28;20029;-78
2022/11/25 12:14:30;;;;;;;1.25;0.82;;;;;;;;;;5079190;28;20031;-78
2022/11/25 12:16:57;;;;;;;2.30;1.20;;;;;;;;;;5062678;28;20079;-79
2022/11/25 12:19:23;;;;;;;2.17;1.10;;;;;;;;;;5078019;28;20391;-80
2022/11/25 12:21:52;;;;;;;1.48;0.80;;;;;;;;;;5060525;28;20096;-79
2022/11/25 12:24:37;;;;;;;2.30;0.80;;;;;;;;;;5041884;28;20059;-78
2022/11/25 12:27:06;;;;;;;4.43;1.33;;;;;;;;;;5044214;28;20505;-80
2022/11/25 12:29:36;;;;;;;4.13;1.35;;;;;;;;;;5063196;28;20536;-79
2022/11/25 12:32:26;;;;;;;2.63;1.63;;;;;;;;;;5080475;28;20021;-78
2022/11/25 12:34:56;;;;;;;3.47;1.40;;;;;;;;;;5059261;28;20029;-79
2022/11/25 12:37:34;;;;;;;2.92;1.23;;;;;;;;;;5041281;28;20046;-79
2022/11/25 12:40:05;;;;;;;5.63;1.00;;;;;;;;;;5058774;28;20039;-79
2022/11/25 12:42:32;;;;;;;1.20;0.80;;;;;;;;;;5072737;28;20017;-78
2022/11/25 12:45:04;;;;;;;1.63;0.68;;;;;;;;;;5062082;28;20024;-79
2022/11/25 12:47:31;;;;;;;1.55;0.65;;;;;;;;;;5052120;28;20044;-79
2022/11/25 12:49:57;;;;;;;1.05;0.75;;;;;;;;;;5065291;28;20028;-79
2022/11/25 12:52:23;;;;;;;2.38;1.05;;;;;;;;;;5080069;28;20033;-80
2022/11/25 12:55:05;;;;;;;2.17;1.13;;;;;;;;;;5086489;28;20046;-78
2022/11/25 12:57:40;;;;;;;3.95;1.33;;;;;;;;;;5087181;28;20031;-78
2022/11/25 13:00:19;;;;;;;1.90;1.20;;;;;;;;;;5068900;28;20032;-80
2022/11/25 13:02:51;;;;;;;2.40;1.15;;;;;;;;;;5081564;28;20120;-80
2022/11/25 13:05:36;;;;;;;1.20;0.90;;;;;;;;;;5062850;28;20107;-80
2022/11/25 13:08:08;;;;;;;3.97;1.83;;;;;;;;;;5081717;28;20092;-79
2022/11/25 13:10:43;;;;;;;3.28;1.38;;;;;;;;;;5068310;28;20033;-79
2022/11/25 13:13:20;;;;;;;3.33;1.23;;;;;;;;;;5046878;28;20021;-77
2022/11/25 13:15:48;;;;;;;3.17;1.40;;;;;;;;;;5069271;28;20047;-79
2022/11/25 13:18:16;;;;;;;2.70;1.35;;;;;;;;;;5079436;28;20035;-80
2022/11/25 13:20:55;;;;;;;2.45;1.08;;;;;;;;;;5080612;28;20021;-79
2022/11/25 13:23:28;;;;;;;3.60;1.60;;;;;;;;;;5078711;28;20027;-78
2022/11/25 13:26:14;;;;;;;2.05;0.88;;;;;;;;;;5075575;28;20421;-78
2022/11/25 13:28:40;;;;;;;3.17;1.30;;;;;;;;;;5076216;28;20041;-77
2022/11/25 13:31:15;;;;;;;3.80;1.55;;;;;;;;;;5077641;28;20112;-78
2022/11/25 13:33:45;;;;;;;6.00;1.67;;;;;;;;;;5072226;28;20024;-77
2022/11/25 13:36:24;;;;;;;3.58;1.67;;;;;;;;;;5072173;28;20099;-78
2022/11/25 13:38:50;;;;;;;8.38;1.52;;;;;;;;;;5073348;28;20017;-79
2022/11/25 13:41:16;;;;;;;2.22;1.38;;;;;;;;;;5078839;28;20042;-81
2022/11/25 13:44:00;;;;;;;7.10;2.13;;;;;;;;;;5084288;28;20051;-80
2022/11/25 13:46:53;;;;;;;3.55;1.85;;;;;;;;;;5054259;28;20542;-81
2022/11/25 13:49:31;;;;;;;3.67;1.75;;;;;;;;;;5047137;28;20493;-81
2022/11/25 13:51:59;;;;;;;5.30;1.63;;;;;;;;;;5051313;28;20029;-81
2022/11/25 13:54:33;;;;;;;5.22;1.65;;;;;;;;;;5063181;28;20017;-81
2022/11/25 13:57:11;;;;;;;3.80;1.42;;;;;;;;;;5067953;28;20100;-78
2022/11/25 13:59:43;;;;;;;5.53;1.63;;;;;;;;;;5070173;28;20488;-80
2022/11/25 14:02:30;;;;;;;4.68;1.33;;;;;;;;;;5089771;28;20082;-81
2022/11/25 14:05:15;;;;;;;2.20;1.10;;;;;;;;;;5077296;28;20043;-77
2022/11/25 14:08:06;;;;;;;3.63;1.40;;;;;;;;;;5074584;28;20093;-78
2022/11/25 14:10:44;;;;;;;4.05;1.33;;;;;;;;;;5053848;28;20047;-77
2022/11/25 14:13:16;;;;;;;3.80;1.55;;;;;;;;;;5090352;28;20028;-78
2022/11/25 14:16:01;;;;;;;2.80;1.17;;;;;;;;;;5087120;28;20023;-76
2022/11/25 14:18:42;;;;;;;5.13;2.05;;;;;;;;;;5070171;28;20068;-79
2022/11/25 14:21:29;;;;;;;2.63;1.42;;;;;;;;;;5052848;28;20025;-78
2022/11/25 14:24:02;;;;;;;3.72;1.10;;;;;;;;;;5044309;28;20080;-77
2022/11/25 14:26:31;;;;;;;3.42;1.27;;;;;;;;;;5062682;28;20067;-79
2022/11/25 14:29:05;;;;;;;3.60;1.35;;;;;;;;;;5076102;28;20036;-79
2022/11/25 14:31:44;;;;;;;2.97;1.35;;;;;;;;;;5083761;28;20025;-79
2022/11/25 14:34:43;;;;;;;2.22;1.15;;;;;;;;;;5048766;28;20028;-79
2022/11/25 14:37:25;;;;;;;3.55;1.60;;;;;;;;;;5046429;28;20102;-79
2022/11/25 14:40:06;;;;;;;3.97;1.45;;;;;;;;;;5061390;28;20055;-80
2022/11/25 14:42:34;;;;;;;2.92;1.50;;;;;;;;;;5079744;28;20025;-80
2022/11/25 14:45:00;;;;;;;3.30;1.38;;;;;;;;;;5086537;28;20041;-80
2022/11/25 14:47:35;;;;;;;4.60;1.77;;;;;;;;;;5073651;28;20035;-79
2022/11/25 14:50:01;;;;;;;5.10;1.50;;;;;;;;;;5068807;28;20036;-80
2022/11/25 14:52:28;;;;;;;6.63;2.95;;;;;;;;;;5078784;28;20024;-80
2022/11/25 14:54:56;;;;;;;5.93;1.45;;;;;;;;;;5075098;28;20024;-80
2022/11/25 14:57:26;;;;;;;7.15;1.65;;;;;;;;;;5077970;28;20082;-79
2022/11/25 14:59:54;;;;;;;7.50;1.98;;;;;;;;;;5079361;28;20020;-79
2022/11/25 15:02:30;;;;;;;6.30;1.50;;;;;;;;;;5068681;28;20029;-79
2022/11/25 15:05:02;;;;;;;5.32;1.75;;;;;;;;;;5078033;28;20613;-80
2022/11/25 15:07:28;;;;;;;4.35;1.52;;;;;;;;;;5077396;28;20097;-80